sensor_id;sensor_type;location;lat;lon;timestamp;temperature;humidity
11152;DHT22;5630;49.342;10.802;2022-11-20T00:01:39;1.80;99.90
11152;DHT22;5630;49.342;10.802;2022-11-20T00:04:05;1.90;99.90
11152;DHT22;5630;49.342;10.802;2022-11-20T00:06:30;1.80;99.90
11152;DHT22;5630;49.342;10.802;2022-11-20T00:08:58;1.80;99.90
11152;DHT22;5630;49.342;10.802;2022-11-20T00:11:24;1.80;99.90
11152;DHT22;5630;49.342;10.802;2022-11-20T00:13:53;1.80;99.90
11152;DHT22;5630;49.342;10.802;2022-11-20T00:16:21;1.80;99.90
11152;DHT22;5630;49.342;10.802;2022-11-20T00:18:47;1.80;99.90
11152;DHT22;5630;49.342;10.802;2022-11-20T00:21:15;1.80;99.90
11152;DHT22;5630;49.342;10.802;2022-11-20T00:23:41;1.80;99.90
11152;DHT22;5630;49.342;10.802;2022-11-20T00:26:09;1.90;99.90
11152;DHT22;5630;49.342;10.802;2022-11-20T00:28:35;1.90;99.90
11152;DHT22;5630;49.342;10.802;2022-11-20T00:31:06;1.90;99.90
11152;DHT22;5630;49.342;10.802;2022-11-20T00:33:32;1.90;99.90
11152;DHT22;5630;49.342;10.802;2022-11-20T00:36:06;1.90;99.90
11152;DHT22;5630;49.342;10.802;2022-11-20T00:38:33;1.90;99.90
11152;DHT22;5630;49.342;10.802;2022-11-20T00:41:00;1.90;99.90
11152;DHT22;5630;49.342;10.802;2022-11-20T00:43:27;1.90;99.90
11152;DHT22;5630;49.342;10.802;2022-11-20T00:46:00;1.90;99.90
11152;DHT22;5630;49.342;10.802;2022-11-20T00:48:27;1.90;99.90
11152;DHT22;5630;49.342;10.802;2022-11-20T00:50:53;1.90;99.90
11152;DHT22;5630;49.342;10.802;2022-11-20T00:53:19;1.90;99.90
11152;DHT22;5630;49.342;10.802;2022-11-20T00:55:59;1.90;99.90
11152;DHT22;5630;49.342;10.802;2022-11-20T00:58:28;2.00;99.90
11152;DHT22;5630;49.342;10.802;2022-11-20T01:01:03;1.90;99.90
11152;DHT22;5630;49.342;10.802;2022-11-20T01:03:34;1.90;99.90
11152;DHT22;5630;49.342;10.802;2022-11-20T01:06:09;1.90;99.90
11152;DHT22;5630;49.342;10.802;2022-11-20T01:08:35;2.00;99.90
11152;DHT22;5630;49.342;10.802;2022-11-20T01:11:03;2.00;99.90
11152;DHT22;5630;49.342;10.802;2022-11-20T01:13:30;1.90;99.90
11152;DHT22;5630;49.342;10.802;2022-11-20T01:16:09;2.00;99.90
11152;DHT22;5630;49.342;10.802;2022-11-20T01:18:37;1.90;99.90
11152;DHT22;5630;49.342;10.802;2022-11-20T01:21:05;1.90;99.90
11152;DHT22;5630;49.342;10.802;2022-11-20T01:23:35;1.90;99.90
11152;DHT22;5630;49.342;10.802;2022-11-20T01:26:06;1.90;99.90
11152;DHT22;5630;49.342;10.802;2022-11-20T01:28:33;1.90;99.90
11152;DHT22;5630;49.342;10.802;2022-11-20T01:30:59;1.80;99.90
11152;DHT22;5630;49.342;10.802;2022-11-20T01:33:25;1.80;99.90
11152;DHT22;5630;49.342;10.802;2022-11-20T01:35:51;1.80;99.90
11152;DHT22;5630;49.342;10.802;2022-11-20T01:38:17;1.80;99.90
11152;DHT22;5630;49.342;10.802;2022-11-20T01:40:43;1.80;99.90
11152;DHT22;5630;49.342;10.802;2022-11-20T01:43:18;1.90;99.90
11152;DHT22;5630;49.342;10.802;2022-11-20T01:48:47;1.90;99.90
11152;DHT22;5630;49.342;10.802;2022-11-20T01:51:41;1.90;99.90
11152;DHT22;5630;49.342;10.802;2022-11-20T01:54:15;1.90;99.90
11152;DHT22;5630;49.342;10.802;2022-11-20T01:56:44;2.00;99.90
11152;DHT22;5630;49.342;10.802;2022-11-20T01:59:12;1.90;99.90
11152;DHT22;5630;49.342;10.802;2022-11-20T02:01:39;2.00;99.90
11152;DHT22;5630;49.342;10.802;2022-11-20T02:04:06;2.00;99.90
11152;DHT22;5630;49.342;10.802;2022-11-20T02:06:38;2.00;99.90
11152;DHT22;5630;49.342;10.802;2022-11-20T02:09:06;2.00;99.90
11152;DHT22;5630;49.342;10.802;2022-11-20T02:11:32;2.00;99.90
11152;DHT22;5630;49.342;10.802;2022-11-20T02:13:58;2.00;99.90
11152;DHT22;5630;49.342;10.802;2022-11-20T02:16:27;2.10;99.90
11152;DHT22;5630;49.342;10.802;2022-11-20T02:18:55;2.10;99.90
11152;DHT22;5630;49.342;10.802;2022-11-20T02:21:43;2.10;99.90
11152;DHT22;5630;49.342;10.802;2022-11-20T02:24:14;2.10;99.90
11152;DHT22;5630;49.342;10.802;2022-11-20T02:29:08;2.10;99.90
11152;DHT22;5630;49.342;10.802;2022-11-20T02:31:40;2.10;99.90
11152;DHT22;5630;49.342;10.802;2022-11-20T02:34:06;2.10;99.90
11152;DHT22;5630;49.342;10.802;2022-11-20T02:36:33;2.20;99.90
11152;DHT22;5630;49.342;10.802;2022-11-20T02:39:00;2.20;99.90
11152;DHT22;5630;49.342;10.802;2022-11-20T02:41:37;2.10;99.90
11152;DHT22;5630;49.342;10.802;2022-11-20T02:44:04;2.10;99.90
11152;DHT22;5630;49.342;10.802;2022-11-20T02:46:30;2.10;99.90
11152;DHT22;5630;49.342;10.802;2022-11-20T02:48:56;2.20;99.90
11152;DHT22;5630;49.342;10.802;2022-11-20T02:51:22;2.20;99.90
11152;DHT22;5630;49.342;10.802;2022-11-20T02:53:47;2.20;99.90
11152;DHT22;5630;49.342;10.802;2022-11-20T02:56:13;2.20;99.90
11152;DHT22;5630;49.342;10.802;2022-11-20T02:58:39;2.20;99.90
11152;DHT22;5630;49.342;10.802;2022-11-20T03:01:04;2.20;99.90
11152;DHT22;5630;49.342;10.802;2022-11-20T03:03:30;2.20;99.90
11152;DHT22;5630;49.342;10.802;2022-11-20T03:05:58;2.20;99.90
11152;DHT22;5630;49.342;10.802;2022-11-20T03:08:23;2.30;99.90
11152;DHT22;5630;49.342;10.802;2022-11-20T03:10:49;2.20;99.90
11152;DHT22;5630;49.342;10.802;2022-11-20T03:13:14;2.20;99.90
11152;DHT22;5630;49.342;10.802;2022-11-20T03:15:40;2.20;99.90
11152;DHT22;5630;49.342;10.802;2022-11-20T03:18:06;2.30;99.90
11152;DHT22;5630;49.342;10.802;2022-11-20T03:20:33;2.30;99.90
11152;DHT22;5630;49.342;10.802;2022-11-20T03:22:59;2.20;99.90
11152;DHT22;5630;49.342;10.802;2022-11-20T03:25:25;2.20;99.90
11152;DHT22;5630;49.342;10.802;2022-11-20T03:27:50;2.30;99.90
11152;DHT22;5630;49.342;10.802;2022-11-20T03:30:16;2.30;99.90
11152;DHT22;5630;49.342;10.802;2022-11-20T03:32:42;2.30;99.90
11152;DHT22;5630;49.342;10.802;2022-11-20T03:35:08;2.30;99.90
11152;DHT22;5630;49.342;10.802;2022-11-20T03:37:33;2.30;99.90
11152;DHT22;5630;49.342;10.802;2022-11-20T03:39:59;2.30;99.90
11152;DHT22;5630;49.342;10.802;2022-11-20T03:42:24;2.30;99.90
11152;DHT22;5630;49.342;10.802;2022-11-20T03:45:09;2.30;99.90
11152;DHT22;5630;49.342;10.802;2022-11-20T03:47:35;2.30;99.90
11152;DHT22;5630;49.342;10.802;2022-11-20T03:50:00;2.30;99.90
11152;DHT22;5630;49.342;10.802;2022-11-20T03:52:26;2.30;99.90
11152;DHT22;5630;49.342;10.802;2022-11-20T03:54:51;2.30;99.90
11152;DHT22;5630;49.342;10.802;2022-11-20T03:57:17;2.30;99.90
11152;DHT22;5630;49.342;10.802;2022-11-20T03:59:42;2.30;99.90
11152;DHT22;5630;49.342;10.802;2022-11-20T04:02:08;2.30;99.90
11152;DHT22;5630;49.342;10.802;2022-11-20T04:04:33;2.30;99.90
11152;DHT22;5630;49.342;10.802;2022-11-20T04:06:59;2.30;99.90
11152;DHT22;5630;49.342;10.802;2022-11-20T04:09:24;2.30;99.90
11152;DHT22;5630;49.342;10.802;2022-11-20T04:11:50;2.30;99.90
11152;DHT22;5630;49.342;10.802;2022-11-20T04:14:16;2.30;99.90
11152;DHT22;5630;49.342;10.802;2022-11-20T04:16:42;2.30;99.90
11152;DHT22;5630;49.342;10.802;2022-11-20T04:19:13;2.30;99.90
11152;DHT22;5630;49.342;10.802;2022-11-20T04:21:39;2.30;99.90
11152;DHT22;5630;49.342;10.802;2022-11-20T04:24:06;2.30;99.90
11152;DHT22;5630;49.342;10.802;2022-11-20T04:26:32;2.30;99.90
11152;DHT22;5630;49.342;10.802;2022-11-20T04:28:58;2.30;99.90
11152;DHT22;5630;49.342;10.802;2022-11-20T04:31:26;2.30;99.90
11152;DHT22;5630;49.342;10.802;2022-11-20T04:33:52;2.30;99.90
11152;DHT22;5630;49.342;10.802;2022-11-20T04:36:20;2.30;99.90
11152;DHT22;5630;49.342;10.802;2022-11-20T04:38:46;2.40;99.90
11152;DHT22;5630;49.342;10.802;2022-11-20T04:41:17;2.40;99.90
11152;DHT22;5630;49.342;10.802;2022-11-20T04:43:49;2.40;99.90
11152;DHT22;5630;49.342;10.802;2022-11-20T04:46:19;2.40;99.90
11152;DHT22;5630;49.342;10.802;2022-11-20T04:48:46;2.40;99.90
11152;DHT22;5630;49.342;10.802;2022-11-20T04:51:12;2.40;99.90
11152;DHT22;5630;49.342;10.802;2022-11-20T04:53:38;2.40;99.90
11152;DHT22;5630;49.342;10.802;2022-11-20T04:56:06;2.40;99.90
11152;DHT22;5630;49.342;10.802;2022-11-20T04:58:32;2.40;99.90
11152;DHT22;5630;49.342;10.802;2022-11-20T05:01:27;2.40;99.90
11152;DHT22;5630;49.342;10.802;2022-11-20T05:03:53;2.40;99.90
11152;DHT22;5630;49.342;10.802;2022-11-20T05:06:20;2.40;99.90
11152;DHT22;5630;49.342;10.802;2022-11-20T05:08:46;2.50;99.90
11152;DHT22;5630;49.342;10.802;2022-11-20T05:11:17;2.50;99.90
11152;DHT22;5630;49.342;10.802;2022-11-20T05:13:43;2.50;99.90
11152;DHT22;5630;49.342;10.802;2022-11-20T05:16:13;2.50;99.90
11152;DHT22;5630;49.342;10.802;2022-11-20T05:18:40;2.40;99.90
11152;DHT22;5630;49.342;10.802;2022-11-20T05:21:06;2.40;99.90
11152;DHT22;5630;49.342;10.802;2022-11-20T05:23:33;2.50;99.90
11152;DHT22;5630;49.342;10.802;2022-11-20T05:25:59;2.50;99.90
11152;DHT22;5630;49.342;10.802;2022-11-20T05:28:25;2.40;99.90
11152;DHT22;5630;49.342;10.802;2022-11-20T05:30:51;2.50;99.90
11152;DHT22;5630;49.342;10.802;2022-11-20T05:33:17;2.50;99.90
11152;DHT22;5630;49.342;10.802;2022-11-20T05:35:43;2.50;99.90
11152;DHT22;5630;49.342;10.802;2022-11-20T05:38:08;2.50;99.90
11152;DHT22;5630;49.342;10.802;2022-11-20T05:40:34;2.40;99.90
11152;DHT22;5630;49.342;10.802;2022-11-20T05:43:00;2.40;99.90
11152;DHT22;5630;49.342;10.802;2022-11-20T05:45:26;2.40;99.90
11152;DHT22;5630;49.342;10.802;2022-11-20T05:47:51;2.40;99.90
11152;DHT22;5630;49.342;10.802;2022-11-20T05:50:17;2.40;99.90
11152;DHT22;5630;49.342;10.802;2022-11-20T05:52:42;2.40;99.90
11152;DHT22;5630;49.342;10.802;2022-11-20T05:55:08;2.40;99.90
11152;DHT22;5630;49.342;10.802;2022-11-20T05:57:34;2.40;99.90
11152;DHT22;5630;49.342;10.802;2022-11-20T06:00:00;2.40;99.90
11152;DHT22;5630;49.342;10.802;2022-11-20T06:02:25;2.40;99.90
11152;DHT22;5630;49.342;10.802;2022-11-20T06:04:51;2.40;99.90
11152;DHT22;5630;49.342;10.802;2022-11-20T06:07:16;2.40;99.90
11152;DHT22;5630;49.342;10.802;2022-11-20T06:09:42;2.30;99.90
11152;DHT22;5630;49.342;10.802;2022-11-20T06:12:08;2.30;99.90
11152;DHT22;5630;49.342;10.802;2022-11-20T06:14:33;2.30;99.90
11152;DHT22;5630;49.342;10.802;2022-11-20T06:16:59;2.30;99.90
11152;DHT22;5630;49.342;10.802;2022-11-20T06:19:24;2.30;99.90
11152;DHT22;5630;49.342;10.802;2022-11-20T06:21:50;2.40;99.90
11152;DHT22;5630;49.342;10.802;2022-11-20T06:24:16;2.40;99.90
11152;DHT22;5630;49.342;10.802;2022-11-20T06:26:42;2.40;99.90
11152;DHT22;5630;49.342;10.802;2022-11-20T06:29:08;2.40;99.90
11152;DHT22;5630;49.342;10.802;2022-11-20T06:31:33;2.40;99.90
11152;DHT22;5630;49.342;10.802;2022-11-20T06:34:00;2.50;99.90
11152;DHT22;5630;49.342;10.802;2022-11-20T06:36:26;2.40;99.90
11152;DHT22;5630;49.342;10.802;2022-11-20T06:38:52;2.50;99.90
11152;DHT22;5630;49.342;10.802;2022-11-20T06:41:20;2.40;99.90
11152;DHT22;5630;49.342;10.802;2022-11-20T06:43:47;2.50;99.90
11152;DHT22;5630;49.342;10.802;2022-11-20T06:46:13;2.50;99.90
11152;DHT22;5630;49.342;10.802;2022-11-20T06:48:40;2.60;99.90
11152;DHT22;5630;49.342;10.802;2022-11-20T06:51:07;2.60;99.90
11152;DHT22;5630;49.342;10.802;2022-11-20T06:53:33;2.60;99.90
11152;DHT22;5630;49.342;10.802;2022-11-20T06:55:59;2.50;99.90
11152;DHT22;5630;49.342;10.802;2022-11-20T06:58:29;2.60;99.90
11152;DHT22;5630;49.342;10.802;2022-11-20T07:00:59;2.60;99.90
11152;DHT22;5630;49.342;10.802;2022-11-20T07:03:25;2.70;99.90
11152;DHT22;5630;49.342;10.802;2022-11-20T07:05:50;2.80;99.90
11152;DHT22;5630;49.342;10.802;2022-11-20T07:08:16;3.90;99.90
11152;DHT22;5630;49.342;10.802;2022-11-20T07:15:33;5.50;99.90
11152;DHT22;5630;49.342;10.802;2022-11-20T07:17:59;5.40;99.90
11152;DHT22;5630;49.342;10.802;2022-11-20T07:20:25;4.80;99.90
11152;DHT22;5630;49.342;10.802;2022-11-20T07:22:55;4.50;99.90
11152;DHT22;5630;49.342;10.802;2022-11-20T07:25:21;4.30;99.90
11152;DHT22;5630;49.342;10.802;2022-11-20T07:27:47;4.10;99.90
11152;DHT22;5630;49.342;10.802;2022-11-20T07:30:13;3.90;99.90
11152;DHT22;5630;49.342;10.802;2022-11-20T07:32:39;3.60;99.90
11152;DHT22;5630;49.342;10.802;2022-11-20T07:35:05;3.70;99.90
11152;DHT22;5630;49.342;10.802;2022-11-20T07:37:33;3.60;99.90
11152;DHT22;5630;49.342;10.802;2022-11-20T07:39:59;3.60;99.90
11152;DHT22;5630;49.342;10.802;2022-11-20T07:42:24;3.60;99.90
11152;DHT22;5630;49.342;10.802;2022-11-20T07:44:50;3.60;99.90
11152;DHT22;5630;49.342;10.802;2022-11-20T07:47:15;3.60;99.90
11152;DHT22;5630;49.342;10.802;2022-11-20T07:49:41;3.50;99.90
11152;DHT22;5630;49.342;10.802;2022-11-20T07:52:06;3.50;99.90
11152;DHT22;5630;49.342;10.802;2022-11-20T07:54:32;3.50;99.90
11152;DHT22;5630;49.342;10.802;2022-11-20T07:56:58;3.50;99.90
11152;DHT22;5630;49.342;10.802;2022-11-20T07:59:23;3.50;99.90
11152;DHT22;5630;49.342;10.802;2022-11-20T08:01:49;3.50;99.90
11152;DHT22;5630;49.342;10.802;2022-11-20T08:04:15;3.50;99.90
11152;DHT22;5630;49.342;10.802;2022-11-20T08:06:41;3.50;99.90
11152;DHT22;5630;49.342;10.802;2022-11-20T08:09:07;3.50;99.90
11152;DHT22;5630;49.342;10.802;2022-11-20T08:11:33;3.40;99.90
11152;DHT22;5630;49.342;10.802;2022-11-20T08:14:17;3.50;99.90
11152;DHT22;5630;49.342;10.802;2022-11-20T08:16:47;3.50;99.90
11152;DHT22;5630;49.342;10.802;2022-11-20T08:19:14;4.20;99.90
11152;DHT22;5630;49.342;10.802;2022-11-20T08:21:40;6.10;99.90
11152;DHT22;5630;49.342;10.802;2022-11-20T08:24:07;7.00;99.90
11152;DHT22;5630;49.342;10.802;2022-11-20T08:26:35;7.90;99.90
11152;DHT22;5630;49.342;10.802;2022-11-20T08:29:00;8.60;99.90
11152;DHT22;5630;49.342;10.802;2022-11-20T08:31:27;8.90;99.90
11152;DHT22;5630;49.342;10.802;2022-11-20T08:33:53;8.40;99.90
11152;DHT22;5630;49.342;10.802;2022-11-20T08:36:20;7.80;99.90
11152;DHT22;5630;49.342;10.802;2022-11-20T08:38:50;7.10;99.90
11152;DHT22;5630;49.342;10.802;2022-11-20T08:41:16;6.70;99.90
11152;DHT22;5630;49.342;10.802;2022-11-20T08:44:01;6.30;99.90
11152;DHT22;5630;49.342;10.802;2022-11-20T08:46:32;6.00;99.90
11152;DHT22;5630;49.342;10.802;2022-11-20T08:49:05;5.70;99.90
11152;DHT22;5630;49.342;10.802;2022-11-20T08:51:31;5.50;99.90
11152;DHT22;5630;49.342;10.802;2022-11-20T08:53:57;5.40;99.90
11152;DHT22;5630;49.342;10.802;2022-11-20T08:56:23;5.20;99.90
11152;DHT22;5630;49.342;10.802;2022-11-20T08:58:50;5.10;99.90
11152;DHT22;5630;49.342;10.802;2022-11-20T09:01:16;4.90;99.90
11152;DHT22;5630;49.342;10.802;2022-11-20T09:03:42;4.80;99.90
11152;DHT22;5630;49.342;10.802;2022-11-20T09:06:08;4.80;99.90
11152;DHT22;5630;49.342;10.802;2022-11-20T09:08:34;4.80;99.90
11152;DHT22;5630;49.342;10.802;2022-11-20T09:11:01;4.80;99.90
11152;DHT22;5630;49.342;10.802;2022-11-20T09:13:28;4.80;99.90
11152;DHT22;5630;49.342;10.802;2022-11-20T09:15:59;4.70;99.90
11152;DHT22;5630;49.342;10.802;2022-11-20T09:18:27;4.80;99.90
11152;DHT22;5630;49.342;10.802;2022-11-20T09:20:57;4.80;99.90
11152;DHT22;5630;49.342;10.802;2022-11-20T09:23:23;4.80;99.90
11152;DHT22;5630;49.342;10.802;2022-11-20T09:25:48;4.80;99.90
11152;DHT22;5630;49.342;10.802;2022-11-20T09:28:14;4.90;99.90
11152;DHT22;5630;49.342;10.802;2022-11-20T09:30:39;4.90;99.90
11152;DHT22;5630;49.342;10.802;2022-11-20T09:33:06;4.90;99.90
11152;DHT22;5630;49.342;10.802;2022-11-20T09:35:32;4.90;99.90
11152;DHT22;5630;49.342;10.802;2022-11-20T09:37:57;4.90;99.90
11152;DHT22;5630;49.342;10.802;2022-11-20T09:40:26;4.90;99.90
11152;DHT22;5630;49.342;10.802;2022-11-20T09:46:17;5.10;99.90
11152;DHT22;5630;49.342;10.802;2022-11-20T09:48:55;5.00;99.90
11152;DHT22;5630;49.342;10.802;2022-11-20T09:51:41;5.00;99.90
11152;DHT22;5630;49.342;10.802;2022-11-20T09:56:44;5.10;99.90
11152;DHT22;5630;49.342;10.802;2022-11-20T09:59:33;5.10;99.90
11152;DHT22;5630;49.342;10.802;2022-11-20T10:02:01;5.10;99.90
11152;DHT22;5630;49.342;10.802;2022-11-20T10:04:30;5.10;99.90
11152;DHT22;5630;49.342;10.802;2022-11-20T10:07:13;5.10;99.90
11152;DHT22;5630;49.342;10.802;2022-11-20T10:09:46;5.20;99.90
11152;DHT22;5630;49.342;10.802;2022-11-20T10:12:28;5.20;99.90
11152;DHT22;5630;49.342;10.802;2022-11-20T10:15:29;5.20;99.90
11152;DHT22;5630;49.342;10.802;2022-11-20T10:18:17;5.40;99.90
11152;DHT22;5630;49.342;10.802;2022-11-20T10:26:17;5.80;99.90
11152;DHT22;5630;49.342;10.802;2022-11-20T10:31:51;5.60;99.90
11152;DHT22;5630;49.342;10.802;2022-11-20T10:34:22;5.50;99.90
11152;DHT22;5630;49.342;10.802;2022-11-20T10:37:00;5.50;99.90
11152;DHT22;5630;49.342;10.802;2022-11-20T10:39:35;5.50;99.90
11152;DHT22;5630;49.342;10.802;2022-11-20T10:42:01;5.50;99.90
11152;DHT22;5630;49.342;10.802;2022-11-20T10:44:28;5.50;99.90
11152;DHT22;5630;49.342;10.802;2022-11-20T10:47:17;5.50;99.90
11152;DHT22;5630;49.342;10.802;2022-11-20T10:49:46;5.50;99.90
11152;DHT22;5630;49.342;10.802;2022-11-20T10:58:14;5.60;99.90
11152;DHT22;5630;49.342;10.802;2022-11-20T11:00:40;5.60;99.90
11152;DHT22;5630;49.342;10.802;2022-11-20T11:03:35;5.60;99.90
11152;DHT22;5630;49.342;10.802;2022-11-20T11:06:07;5.60;99.90
11152;DHT22;5630;49.342;10.802;2022-11-20T11:08:37;5.60;99.90
11152;DHT22;5630;49.342;10.802;2022-11-20T11:11:23;5.70;99.90
11152;DHT22;5630;49.342;10.802;2022-11-20T11:13:50;5.60;99.90
11152;DHT22;5630;49.342;10.802;2022-11-20T11:16:24;5.60;99.90
11152;DHT22;5630;49.342;10.802;2022-11-20T11:18:50;5.60;99.90
11152;DHT22;5630;49.342;10.802;2022-11-20T11:21:25;5.60;99.90
11152;DHT22;5630;49.342;10.802;2022-11-20T11:24:04;5.70;99.90
11152;DHT22;5630;49.342;10.802;2022-11-20T11:26:29;5.60;99.90
11152;DHT22;5630;49.342;10.802;2022-11-20T11:29:01;5.70;99.90
11152;DHT22;5630;49.342;10.802;2022-11-20T11:31:32;5.70;99.90
11152;DHT22;5630;49.342;10.802;2022-11-20T11:36:32;5.70;99.90
11152;DHT22;5630;49.342;10.802;2022-11-20T11:38:58;5.80;99.90
11152;DHT22;5630;49.342;10.802;2022-11-20T11:41:28;5.80;99.90
11152;DHT22;5630;49.342;10.802;2022-11-20T11:43:56;5.70;99.90
11152;DHT22;5630;49.342;10.802;2022-11-20T11:46:55;5.50;99.90
11152;DHT22;5630;49.342;10.802;2022-11-20T11:49:22;5.20;99.90
11152;DHT22;5630;49.342;10.802;2022-11-20T11:52:16;5.00;99.90
11152;DHT22;5630;49.342;10.802;2022-11-20T11:54:55;4.80;99.90
11152;DHT22;5630;49.342;10.802;2022-11-20T11:57:41;4.80;99.90
11152;DHT22;5630;49.342;10.802;2022-11-20T12:00:16;4.70;99.90
11152;DHT22;5630;49.342;10.802;2022-11-20T12:05:29;4.70;99.90
11152;DHT22;5630;49.342;10.802;2022-11-20T12:08:23;4.80;99.90
11152;DHT22;5630;49.342;10.802;2022-11-20T12:16:39;4.80;99.90
11152;DHT22;5630;49.342;10.802;2022-11-20T12:19:12;4.80;99.90
11152;DHT22;5630;49.342;10.802;2022-11-20T12:30:24;4.90;99.90
11152;DHT22;5630;49.342;10.802;2022-11-20T12:33:24;5.00;99.90
11152;DHT22;5630;49.342;10.802;2022-11-20T12:43:47;5.10;99.90
11152;DHT22;5630;49.342;10.802;2022-11-20T12:46:45;5.20;99.90
11152;DHT22;5630;49.342;10.802;2022-11-20T12:51:58;5.10;99.90
11152;DHT22;5630;49.342;10.802;2022-11-20T12:54:49;5.20;99.90
11152;DHT22;5630;49.342;10.802;2022-11-20T13:02:26;5.20;99.90
11152;DHT22;5630;49.342;10.802;2022-11-20T13:05:14;5.20;99.90
11152;DHT22;5630;49.342;10.802;2022-11-20T13:07:43;5.20;99.90
11152;DHT22;5630;49.342;10.802;2022-11-20T13:12:49;5.20;99.90
11152;DHT22;5630;49.342;10.802;2022-11-20T13:15:48;5.20;99.90
11152;DHT22;5630;49.342;10.802;2022-11-20T13:18:16;5.30;99.90
11152;DHT22;5630;49.342;10.802;2022-11-20T13:20:44;5.20;99.90
11152;DHT22;5630;49.342;10.802;2022-11-20T13:23:10;5.20;99.90
11152;DHT22;5630;49.342;10.802;2022-11-20T13:25:37;5.20;99.90
11152;DHT22;5630;49.342;10.802;2022-11-20T13:28:25;5.10;99.90
11152;DHT22;5630;49.342;10.802;2022-11-20T13:30:52;5.10;99.90
11152;DHT22;5630;49.342;10.802;2022-11-20T13:33:33;5.10;99.90
11152;DHT22;5630;49.342;10.802;2022-11-20T13:36:19;5.00;99.90
11152;DHT22;5630;49.342;10.802;2022-11-20T13:38:50;5.00;99.90
11152;DHT22;5630;49.342;10.802;2022-11-20T13:41:29;4.90;99.90
11152;DHT22;5630;49.342;10.802;2022-11-20T13:46:48;4.80;99.90
11152;DHT22;5630;49.342;10.802;2022-11-20T13:49:38;4.90;99.90
11152;DHT22;5630;49.342;10.802;2022-11-20T13:55:35;4.90;99.90
11152;DHT22;5630;49.342;10.802;2022-11-20T13:58:36;4.90;99.90
11152;DHT22;5630;49.342;10.802;2022-11-20T14:01:21;4.80;99.90
11152;DHT22;5630;49.342;10.802;2022-11-20T14:03:48;4.80;99.90
11152;DHT22;5630;49.342;10.802;2022-11-20T14:06:30;4.80;99.90
11152;DHT22;5630;49.342;10.802;2022-11-20T14:08:58;4.90;99.90
11152;DHT22;5630;49.342;10.802;2022-11-20T14:11:26;4.90;99.90
11152;DHT22;5630;49.342;10.802;2022-11-20T14:13:58;4.90;99.90
11152;DHT22;5630;49.342;10.802;2022-11-20T14:16:26;4.90;99.90
11152;DHT22;5630;49.342;10.802;2022-11-20T14:18:53;4.90;99.90
11152;DHT22;5630;49.342;10.802;2022-11-20T14:21:24;5.00;99.90
11152;DHT22;5630;49.342;10.802;2022-11-20T14:23:52;5.00;99.90
11152;DHT22;5630;49.342;10.802;2022-11-20T14:26:18;5.00;99.90
11152;DHT22;5630;49.342;10.802;2022-11-20T14:28:49;5.00;99.90
11152;DHT22;5630;49.342;10.802;2022-11-20T14:31:25;5.10;99.90
11152;DHT22;5630;49.342;10.802;2022-11-20T14:33:55;5.00;99.90
11152;DHT22;5630;49.342;10.802;2022-11-20T14:36:24;5.00;99.90
11152;DHT22;5630;49.342;10.802;2022-11-20T14:38:51;5.00;99.90
11152;DHT22;5630;49.342;10.802;2022-11-20T14:41:24;5.00;99.90
11152;DHT22;5630;49.342;10.802;2022-11-20T14:43:56;5.00;99.90
11152;DHT22;5630;49.342;10.802;2022-11-20T14:46:23;5.10;99.90
11152;DHT22;5630;49.342;10.802;2022-11-20T14:48:55;5.00;99.90
11152;DHT22;5630;49.342;10.802;2022-11-20T14:51:31;5.00;99.90
11152;DHT22;5630;49.342;10.802;2022-11-20T14:54:08;5.00;99.90
11152;DHT22;5630;49.342;10.802;2022-11-20T14:56:33;4.90;99.90
11152;DHT22;5630;49.342;10.802;2022-11-20T14:58:59;4.90;99.90
11152;DHT22;5630;49.342;10.802;2022-11-20T15:01:29;4.90;99.90
11152;DHT22;5630;49.342;10.802;2022-11-20T15:04:10;4.90;99.90
11152;DHT22;5630;49.342;10.802;2022-11-20T15:06:37;4.80;99.90
11152;DHT22;5630;49.342;10.802;2022-11-20T15:09:04;4.90;99.90
11152;DHT22;5630;49.342;10.802;2022-11-20T15:11:34;4.90;99.90
11152;DHT22;5630;49.342;10.802;2022-11-20T15:14:06;4.90;99.90
11152;DHT22;5630;49.342;10.802;2022-11-20T15:16:32;4.90;99.90
11152;DHT22;5630;49.342;10.802;2022-11-20T15:18:58;4.90;99.90
11152;DHT22;5630;49.342;10.802;2022-11-20T15:21:24;4.90;99.90
11152;DHT22;5630;49.342;10.802;2022-11-20T15:23:50;5.00;99.90
11152;DHT22;5630;49.342;10.802;2022-11-20T15:26:34;4.90;99.90
11152;DHT22;5630;49.342;10.802;2022-11-20T15:29:02;4.90;99.90
11152;DHT22;5630;49.342;10.802;2022-11-20T15:31:27;4.80;99.90
11152;DHT22;5630;49.342;10.802;2022-11-20T15:33:53;4.90;99.90
11152;DHT22;5630;49.342;10.802;2022-11-20T15:36:19;4.90;99.90
11152;DHT22;5630;49.342;10.802;2022-11-20T15:38:44;4.90;99.90
11152;DHT22;5630;49.342;10.802;2022-11-20T15:41:10;4.90;99.90
11152;DHT22;5630;49.342;10.802;2022-11-20T15:43:36;6.20;99.90
11152;DHT22;5630;49.342;10.802;2022-11-20T15:46:15;6.40;99.90
11152;DHT22;5630;49.342;10.802;2022-11-20T15:48:51;6.20;99.90
11152;DHT22;5630;49.342;10.802;2022-11-20T15:53:43;5.90;99.90
11152;DHT22;5630;49.342;10.802;2022-11-20T15:56:12;5.70;99.90
11152;DHT22;5630;49.342;10.802;2022-11-20T15:58:39;5.60;99.90
11152;DHT22;5630;49.342;10.802;2022-11-20T16:01:05;5.60;99.90
11152;DHT22;5630;49.342;10.802;2022-11-20T16:03:31;5.50;99.90
11152;DHT22;5630;49.342;10.802;2022-11-20T16:05:56;5.50;99.90
11152;DHT22;5630;49.342;10.802;2022-11-20T16:08:22;5.40;99.90
11152;DHT22;5630;49.342;10.802;2022-11-20T16:10:47;5.40;99.90
11152;DHT22;5630;49.342;10.802;2022-11-20T16:13:15;5.40;99.90
11152;DHT22;5630;49.342;10.802;2022-11-20T16:16:02;5.30;99.90
11152;DHT22;5630;49.342;10.802;2022-11-20T16:18:31;5.20;99.90
11152;DHT22;5630;49.342;10.802;2022-11-20T16:20:56;5.20;99.90
11152;DHT22;5630;49.342;10.802;2022-11-20T16:23:22;5.20;99.90
11152;DHT22;5630;49.342;10.802;2022-11-20T16:25:49;5.20;99.90
11152;DHT22;5630;49.342;10.802;2022-11-20T16:28:15;5.10;99.90
11152;DHT22;5630;49.342;10.802;2022-11-20T16:30:40;5.10;99.90
11152;DHT22;5630;49.342;10.802;2022-11-20T16:33:11;5.10;99.90
11152;DHT22;5630;49.342;10.802;2022-11-20T16:35:39;5.10;99.90
11152;DHT22;5630;49.342;10.802;2022-11-20T16:38:05;5.10;99.90
11152;DHT22;5630;49.342;10.802;2022-11-20T16:40:31;5.10;99.90
11152;DHT22;5630;49.342;10.802;2022-11-20T16:42:56;5.00;99.90
11152;DHT22;5630;49.342;10.802;2022-11-20T16:45:22;5.00;99.90
11152;DHT22;5630;49.342;10.802;2022-11-20T16:47:48;5.00;99.90
11152;DHT22;5630;49.342;10.802;2022-11-20T16:50:14;5.00;99.90
11152;DHT22;5630;49.342;10.802;2022-11-20T16:52:40;4.90;99.90
11152;DHT22;5630;49.342;10.802;2022-11-20T16:55:05;4.90;99.90
11152;DHT22;5630;49.342;10.802;2022-11-20T16:57:31;4.90;99.90
11152;DHT22;5630;49.342;10.802;2022-11-20T16:59:58;4.80;99.90
11152;DHT22;5630;49.342;10.802;2022-11-20T17:02:24;4.90;99.90
11152;DHT22;5630;49.342;10.802;2022-11-20T17:04:50;4.80;99.90
11152;DHT22;5630;49.342;10.802;2022-11-20T17:07:16;4.80;99.90
11152;DHT22;5630;49.342;10.802;2022-11-20T17:09:42;4.70;99.90
11152;DHT22;5630;49.342;10.802;2022-11-20T17:12:07;4.80;99.90
11152;DHT22;5630;49.342;10.802;2022-11-20T17:14:33;4.70;99.90
11152;DHT22;5630;49.342;10.802;2022-11-20T17:16:58;4.70;99.90